createdAt,value
2023-06-04T08:01:09.238Z,25.00
2023-06-04T08:02:09.119Z,25.00
2023-06-04T08:03:09.244Z,25.00
2023-06-04T08:04:09.414Z,25.00
2023-06-04T08:05:09.330Z,25.00
2023-06-04T08:06:09.261Z,25.00
2023-06-04T08:07:09.253Z,0.00
2023-06-04T08:08:09.308Z,0.00
2023-06-04T08:09:09.339Z,0.00
2023-06-04T08:10:09.364Z,0.00
2023-06-04T08:11:09.542Z,0.00
2023-06-04T08:12:10.792Z,0.00
2023-06-04T08:13:09.478Z,0.00
2023-06-04T08:14:09.530Z,0.00
2023-06-04T08:15:09.584Z,0.00
2023-06-04T08:16:09.653Z,0.00
2023-06-04T08:17:09.630Z,0.00
2023-06-04T08:18:09.741Z,0.00
2023-06-04T08:19:09.733Z,0.00
2023-06-04T08:20:09.791Z,0.00
2023-06-04T08:21:09.788Z,0.00
2023-06-04T08:22:09.775Z,0.00
2023-06-04T08:23:09.834Z,0.00
2023-06-04T08:24:09.866Z,0.00
2023-06-04T08:25:09.869Z,0.00
2023-06-04T08:26:09.876Z,0.00
2023-06-04T08:27:09.924Z,0.00
2023-06-04T08:28:09.928Z,0.00
2023-06-04T08:29:09.945Z,6.80
2023-06-04T08:30:09.972Z,25.00
2023-06-04T08:31:10.084Z,25.00
2023-06-04T08:32:10.034Z,24.30
2023-06-04T08:33:11.996Z,25.00
2023-06-04T08:34:10.023Z,25.79
2023-06-04T08:35:10.093Z,26.33
2023-06-04T08:36:10.089Z,25.00
2023-06-04T08:37:10.109Z,25.51
2023-06-04T08:38:10.486Z,28.65
2023-06-04T08:39:10.343Z,25.00
2023-06-04T08:40:10.401Z,25.32
2023-06-04T08:41:10.368Z,25.39
2023-06-04T08:42:10.276Z,26.71
2023-06-04T08:43:10.293Z,25.00
2023-06-04T08:44:10.257Z,26.82
2023-06-04T08:45:10.285Z,26.39
2023-06-04T08:46:10.351Z,26.34
2023-06-04T08:47:10.368Z,27.70
2023-06-04T08:48:10.368Z,30.22
2023-06-04T08:49:10.372Z,27.53
2023-06-04T08:50:10.435Z,26.87
2023-06-04T08:51:10.437Z,27.01
2023-06-04T08:52:10.461Z,29.59
2023-06-04T08:53:10.502Z,26.28
2023-06-04T08:54:10.525Z,25.85
2023-06-04T08:55:10.487Z,26.98
2023-06-04T08:56:10.513Z,26.37
2023-06-04T08:57:10.556Z,26.56
2023-06-04T08:58:10.521Z,25.57
2023-06-04T08:59:10.598Z,28.67
2023-06-04T09:00:10.652Z,27.41
2023-06-04T09:01:10.922Z,29.26
2023-06-04T09:02:10.644Z,28.10
2023-06-04T09:03:10.797Z,26.53
2023-06-04T09:04:13.224Z,26.95
2023-06-04T09:05:10.696Z,27.02
2023-06-04T09:06:10.652Z,25.37
2023-06-04T09:07:10.665Z,27.14
2023-06-04T09:08:10.648Z,22.62
2023-06-04T09:09:10.834Z,28.90
2023-06-04T09:10:12.715Z,27.30
2023-06-04T09:11:10.629Z,27.43
2023-06-04T09:12:10.792Z,26.65
2023-06-04T09:13:10.690Z,25.68
2023-06-04T09:14:10.660Z,24.39
2023-06-04T09:15:10.621Z,22.51
2023-06-04T09:16:10.616Z,27.02
2023-06-04T09:17:10.562Z,29.04
2023-06-04T09:18:10.886Z,25.71
2023-06-04T09:19:10.613Z,28.12
2023-06-04T09:20:10.602Z,29.36
2023-06-04T09:21:10.617Z,25.91
2023-06-04T09:22:10.550Z,24.54
2023-06-04T09:23:10.572Z,28.91
2023-06-04T09:24:10.527Z,31.05
2023-06-04T09:25:10.537Z,28.50
2023-06-04T09:26:10.526Z,30.68
2023-06-04T09:27:10.565Z,29.10
2023-06-04T09:28:10.553Z,28.46
2023-06-04T09:29:10.530Z,25.72
2023-06-04T09:30:10.717Z,28.33
2023-06-04T09:31:10.653Z,27.81
2023-06-04T09:32:10.529Z,25.66
2023-06-04T09:33:10.697Z,29.59
2023-06-04T09:34:10.524Z,29.97
2023-06-04T09:35:10.466Z,25.61
2023-06-04T09:36:10.522Z,28.53
2023-06-04T09:37:10.487Z,27.54
2023-06-04T09:38:10.489Z,30.08
2023-06-04T09:39:10.420Z,28.87
2023-06-04T09:40:10.484Z,31.30
2023-06-04T09:41:10.446Z,25.00
2023-06-04T09:42:10.406Z,28.14
2023-06-04T09:43:10.392Z,28.01
2023-06-04T09:44:10.396Z,28.81
2023-06-04T09:45:10.363Z,31.90
2023-06-04T09:46:10.440Z,28.19
2023-06-04T09:47:10.398Z,27.87
2023-06-04T09:48:10.630Z,27.15
2023-06-04T09:49:10.394Z,30.36
2023-06-04T09:50:10.409Z,28.92
2023-06-04T09:51:10.392Z,30.76
2023-06-04T09:52:10.386Z,31.78
2023-06-04T09:53:10.354Z,28.06
2023-06-04T09:54:10.425Z,26.67
2023-06-04T09:55:10.306Z,30.55
2023-06-04T09:56:10.332Z,26.69
2023-06-04T09:57:11.297Z,26.08
2023-06-04T09:58:10.308Z,32.76
2023-06-04T09:59:10.349Z,35.35
2023-06-04T10:00:10.303Z,29.91
2023-06-04T10:01:10.420Z,27.95
2023-06-04T10:02:10.408Z,28.70
2023-06-04T10:03:10.322Z,25.79
2023-06-04T10:04:10.332Z,32.22
2023-06-04T10:05:10.294Z,30.97
2023-06-04T10:06:10.266Z,31.17
2023-06-04T10:07:10.307Z,31.52
2023-06-04T10:08:10.236Z,31.09
2023-06-04T10:09:10.470Z,27.95
2023-06-04T10:10:10.214Z,31.03
2023-06-04T10:11:10.290Z,29.64
2023-06-04T10:12:10.249Z,29.69
2023-06-04T10:13:10.203Z,30.13
2023-06-04T10:14:10.188Z,26.98
2023-06-04T10:15:10.229Z,29.04
2023-06-04T10:16:18.171Z,29.43
2023-06-04T10:17:11.224Z,29.72
2023-06-04T10:18:10.191Z,29.73
2023-06-04T10:19:10.155Z,30.48
2023-06-04T10:20:10.235Z,28.45
2023-06-04T10:21:10.137Z,28.75
2023-06-04T10:22:10.151Z,28.66
2023-06-04T10:23:10.134Z,28.58
2023-06-04T10:24:10.213Z,30.23
2023-06-04T10:25:10.142Z,26.78
2023-06-04T10:26:10.107Z,30.73
2023-06-04T10:27:10.140Z,30.13
2023-06-04T10:28:10.071Z,29.22
2023-06-04T10:29:10.107Z,30.38
2023-06-04T10:30:10.109Z,30.39
2023-06-04T10:31:10.269Z,29.95
2023-06-04T10:32:10.110Z,29.93
2023-06-04T10:33:10.134Z,25.08
2023-06-04T10:34:10.036Z,26.39
2023-06-04T10:35:10.109Z,31.20
2023-06-04T10:36:10.020Z,30.64
2023-06-04T10:37:10.058Z,30.84
2023-06-04T10:38:10.102Z,28.06
2023-06-04T10:39:10.147Z,27.72
2023-06-04T10:40:10.166Z,27.24
2023-06-04T10:41:10.167Z,25.81
2023-06-04T10:42:10.173Z,28.80
2023-06-04T10:43:10.252Z,27.66
2023-06-04T10:44:10.292Z,29.58
2023-06-04T10:45:10.267Z,30.76
2023-06-04T10:46:10.275Z,28.21
2023-06-04T10:47:10.244Z,29.83
2023-06-04T10:48:10.326Z,27.73
2023-06-04T10:49:10.343Z,30.08
2023-06-04T10:50:10.329Z,28.53
2023-06-04T10:51:10.375Z,30.06
2023-06-04T10:52:10.344Z,28.90
2023-06-04T10:53:10.335Z,29.14
2023-06-04T10:54:10.353Z,29.45
2023-06-04T10:55:10.334Z,30.98
2023-06-04T10:56:10.343Z,31.56
2023-06-04T10:57:10.336Z,30.93
2023-06-04T10:58:10.328Z,30.90
2023-06-04T10:59:10.330Z,30.59
2023-06-04T11:00:10.315Z,32.23
2023-06-04T11:01:10.480Z,30.36
2023-06-04T11:02:10.264Z,34.84
2023-06-04T11:03:10.337Z,31.43
2023-06-04T11:04:10.286Z,33.60
2023-06-04T11:05:10.331Z,31.32
2023-06-04T11:06:10.224Z,31.66
2023-06-04T11:07:10.437Z,33.71
2023-06-04T11:08:10.231Z,28.81
2023-06-04T11:09:10.209Z,34.28
2023-06-04T11:10:10.216Z,31.99
2023-06-04T11:11:10.211Z,30.53
2023-06-04T11:12:10.218Z,30.11
2023-06-04T11:13:10.207Z,30.50
2023-06-04T11:14:10.208Z,34.37
2023-06-04T11:15:10.222Z,32.53
2023-06-04T11:16:10.220Z,33.09
2023-06-04T11:17:10.200Z,33.34
2023-06-04T11:18:10.253Z,27.22
2023-06-04T11:19:10.207Z,33.41
2023-06-04T11:20:10.241Z,32.34
2023-06-04T11:21:10.357Z,33.26
2023-06-04T11:22:10.312Z,29.14
2023-06-04T11:23:10.265Z,32.30
2023-06-04T11:24:10.366Z,32.60
2023-06-04T11:25:10.366Z,30.91
2023-06-04T11:26:10.325Z,28.33
2023-06-04T11:27:17.545Z,28.08
2023-06-04T11:28:11.368Z,28.31
2023-06-04T11:29:10.370Z,28.79
2023-06-04T11:30:10.293Z,28.54
2023-06-04T11:31:10.586Z,29.52
2023-06-04T11:32:10.351Z,32.45
2023-06-04T11:33:10.347Z,31.17
2023-06-04T11:34:10.302Z,31.62
2023-06-04T11:35:10.299Z,27.52
2023-06-04T11:36:10.294Z,30.70
2023-06-04T11:37:10.266Z,29.51
2023-06-04T11:38:10.530Z,28.58
2023-06-04T11:39:10.272Z,28.85
2023-06-04T11:40:10.266Z,30.36
2023-06-04T11:41:10.282Z,26.98
2023-06-04T11:42:10.283Z,29.19
2023-06-04T11:43:10.264Z,29.45
2023-06-04T11:44:11.376Z,27.20
2023-06-04T11:45:10.240Z,32.40
2023-06-04T11:46:11.294Z,29.11
2023-06-04T11:47:10.210Z,27.85
2023-06-04T11:48:10.249Z,31.81
2023-06-04T11:49:10.261Z,26.63
2023-06-04T11:50:10.481Z,29.13
2023-06-04T11:51:10.183Z,26.23
2023-06-04T11:52:10.188Z,29.51
2023-06-04T11:53:10.213Z,30.83
2023-06-04T11:54:10.258Z,33.04
2023-06-04T11:55:10.282Z,30.50
2023-06-04T11:56:10.233Z,29.32
2023-06-04T11:57:10.326Z,32.88
2023-06-04T11:58:10.283Z,26.13
2023-06-04T11:59:10.341Z,28.53
2023-06-04T12:00:10.341Z,33.12
2023-06-04T12:01:10.366Z,32.81
2023-06-04T12:02:10.385Z,31.37
2023-06-04T12:03:10.469Z,28.86
2023-06-04T12:04:10.466Z,27.62
2023-06-04T12:05:10.396Z,32.08
2023-06-04T12:06:10.495Z,28.52
2023-06-04T12:07:10.468Z,30.58
2023-06-04T12:08:10.716Z,26.12
2023-06-04T12:09:10.518Z,32.13
2023-06-04T12:10:10.506Z,26.52
2023-06-04T12:11:10.509Z,31.20
2023-06-04T12:12:10.529Z,30.97
2023-06-04T12:13:10.637Z,27.19
2023-06-04T12:14:10.879Z,26.71
2023-06-04T12:15:10.715Z,32.17
2023-06-04T12:16:10.616Z,30.30
2023-06-04T12:17:10.635Z,28.61
2023-06-04T12:18:10.767Z,28.34
2023-06-04T12:19:10.639Z,33.44
2023-06-04T12:20:10.683Z,31.26
2023-06-04T12:21:10.730Z,30.18
2023-06-04T12:22:10.749Z,26.57
2023-06-04T12:23:10.720Z,30.95
2023-06-04T12:24:10.713Z,31.18
2023-06-04T12:25:10.763Z,30.18
2023-06-04T12:26:10.754Z,31.54
2023-06-04T12:27:10.804Z,32.26
2023-06-04T12:28:10.834Z,29.24
2023-06-04T12:29:10.859Z,28.64
2023-06-04T12:30:10.840Z,33.78
2023-06-04T12:31:11.412Z,30.52
2023-06-04T12:32:12.557Z,32.24
2023-06-04T12:33:10.889Z,28.85
2023-06-04T12:34:10.904Z,32.81
2023-06-04T12:35:10.911Z,29.61
2023-06-04T12:36:10.912Z,27.25
2023-06-04T12:37:10.961Z,32.72
2023-06-04T12:38:10.967Z,32.30
2023-06-04T12:39:11.007Z,29.93
2023-06-04T12:40:11.021Z,31.01
2023-06-04T12:41:11.013Z,29.83
2023-06-04T12:42:11.002Z,32.87
2023-06-04T12:43:11.057Z,34.78
2023-06-04T12:44:11.038Z,32.79
2023-06-04T12:45:11.086Z,30.85
2023-06-04T12:46:11.289Z,31.70
2023-06-04T12:47:11.921Z,32.99
2023-06-04T12:48:11.177Z,33.30
2023-06-04T12:49:11.022Z,33.40
2023-06-04T12:50:11.050Z,33.64
2023-06-04T12:51:11.048Z,32.13
2023-06-04T12:52:11.047Z,30.28
2023-06-04T12:53:11.010Z,35.67
2023-06-04T12:54:11.005Z,35.65
2023-06-04T12:55:11.033Z,32.71
2023-06-04T12:56:11.019Z,30.58
2023-06-04T12:57:10.986Z,31.90
2023-06-04T12:58:11.001Z,30.91
2023-06-04T12:59:11.031Z,32.15
2023-06-04T13:00:10.962Z,33.30
